createdAt,value
2023-04-24T00:00:15.816Z,99817.63
2023-04-24T00:03:22.122Z,99812.41
2023-04-24T00:06:25.543Z,99803.19
2023-04-24T00:09:29.091Z,99797.84
2023-04-24T00:12:33.471Z,99789.88
2023-04-24T00:15:37.019Z,99795.22
2023-04-24T00:18:40.694Z,99785.34
2023-04-24T00:21:43.756Z,99789.19
2023-04-24T00:24:46.759Z,99780.56
2023-04-24T00:27:51.373Z,99775.34
2023-04-24T00:30:54.781Z,99778.94
2023-04-24T00:33:58.261Z,99761.09
2023-04-24T00:37:01.273Z,99752.03
2023-04-24T00:40:05.619Z,99755.84
2023-04-24T00:43:10.853Z,99758.41
2023-04-24T00:46:14.659Z,99755.69
2023-04-24T00:49:17.865Z,99746.63
2023-04-24T00:52:21.631Z,99741.16
2023-04-24T00:55:24.860Z,99736.09
2023-04-24T00:58:30.078Z,99729.72
2023-04-24T01:01:33.708Z,99727.03
2023-04-24T01:04:37.324Z,99723.44
2023-04-24T01:07:44.972Z,99718.50
2023-04-24T01:10:51.914Z,99714.81
2023-04-24T01:13:57.480Z,99727.84
2023-04-24T01:17:01.325Z,99722.63
2023-04-24T01:20:07.121Z,99717.69
2023-04-24T01:23:18.804Z,99728.38
2023-04-24T01:26:22.282Z,99725.78
2023-04-24T01:29:25.825Z,99722.34
2023-04-24T01:32:29.918Z,99715.59
2023-04-24T01:35:38.311Z,99716.28
2023-04-24T01:38:42.757Z,99711.50
2023-04-24T01:41:45.920Z,99707.53
2023-04-24T01:44:49.648Z,99702.03
2023-04-24T01:47:52.849Z,99690.00
2023-04-24T01:50:56.099Z,99695.34
2023-04-24T01:54:00.433Z,99691.63
2023-04-24T01:57:03.929Z,99689.44
2023-04-24T02:00:09.097Z,99679.00
2023-04-24T02:03:18.424Z,99677.63
2023-04-24T02:06:21.534Z,99678.41
2023-04-24T02:09:25.890Z,99681.44
2023-04-24T02:12:29.017Z,99675.44
2023-04-24T02:15:32.148Z,99666.81
2023-04-24T02:18:35.172Z,99669.72
2023-04-24T02:21:38.353Z,99668.03
2023-04-24T02:24:43.554Z,99666.44
2023-04-24T02:27:49.680Z,99663.41
2023-04-24T02:30:52.823Z,99662.03
2023-04-24T02:33:59.079Z,99653.28
2023-04-24T02:37:02.127Z,99657.09
2023-04-24T02:40:09.664Z,99655.72
2023-04-24T02:43:12.695Z,99659.00
2023-04-24T02:46:15.792Z,99658.31
2023-04-24T02:49:19.203Z,99662.16
2023-04-24T02:52:22.201Z,99650.78
2023-04-24T02:55:26.940Z,99657.66
2023-04-24T02:58:29.962Z,99656.00
2023-04-24T03:01:33.051Z,99658.34
2023-04-24T03:04:36.390Z,99651.63
2023-04-24T03:07:39.665Z,99643.53
2023-04-24T03:10:45.229Z,99640.66
2023-04-24T03:13:49.304Z,99648.22
2023-04-24T03:16:55.633Z,99651.91
2023-04-24T03:19:58.682Z,99657.94
2023-04-24T03:23:04.428Z,99659.72
2023-04-24T03:26:11.812Z,99658.91
2023-04-24T03:29:21.908Z,99656.00
2023-04-24T03:32:25.850Z,99648.03
2023-04-24T03:35:29.467Z,99646.66
2023-04-24T03:38:39.216Z,99653.25
2023-04-24T03:41:57.075Z,99652.69
2023-04-24T03:45:09.813Z,99647.78
2023-04-24T03:48:15.640Z,99652.69
2023-04-24T03:51:18.660Z,99657.50
2023-04-24T03:54:23.759Z,99660.81
2023-04-24T03:57:30.990Z,99656.81
2023-04-24T04:00:50.741Z,99651.63
2023-04-24T04:04:14.314Z,99652.28
2023-04-24T04:07:17.906Z,99656.25
2023-04-24T04:10:23.903Z,99655.03
2023-04-24T04:13:28.231Z,99646.78
2023-04-24T04:16:34.192Z,99644.03
2023-04-24T04:19:43.298Z,99649.94
2023-04-24T04:22:47.521Z,99650.75
2023-04-24T04:25:57.084Z,99647.47
2023-04-24T04:29:11.362Z,99642.25
2023-04-24T04:32:18.562Z,99652.09
2023-04-24T04:35:23.161Z,99640.84
2023-04-24T04:38:30.884Z,99650.59
2023-04-24T04:41:43.332Z,99641.66
2023-04-24T04:44:48.734Z,99649.50
2023-04-24T04:47:57.128Z,99667.22
2023-04-24T04:51:03.029Z,99673.09
2023-04-24T04:54:06.429Z,99663.38
2023-04-24T04:57:10.021Z,99666.38
2023-04-24T05:00:16.655Z,99671.44
2023-04-24T05:03:26.094Z,99675.94
2023-04-24T05:06:35.066Z,99683.34
2023-04-24T05:09:38.434Z,99675.91
2023-04-24T05:12:45.713Z,99690.50
2023-04-24T05:15:50.984Z,99686.91
2023-04-24T05:18:54.731Z,99688.13
2023-04-24T05:22:06.269Z,99686.34
2023-04-24T05:25:11.248Z,99686.03
2023-04-24T05:28:19.864Z,99687.31
2023-04-24T05:31:32.164Z,99692.34
2023-04-24T05:34:35.293Z,99699.75
2023-04-24T05:37:38.341Z,99703.41
2023-04-24T05:40:42.216Z,99706.28
2023-04-24T05:43:45.246Z,99699.41
2023-04-24T05:46:49.672Z,99702.38
2023-04-24T05:49:53.491Z,99707.84
2023-04-24T05:52:59.150Z,99706.94
2023-04-24T06:01:33.632Z,99722.63
2023-04-24T06:04:47.508Z,99729.31
2023-04-24T06:07:50.994Z,99726.09
2023-04-24T06:10:54.454Z,99738.13
2023-04-24T06:13:58.785Z,99727.91
2023-04-24T06:17:24.411Z,99737.91
2023-04-24T06:20:30.038Z,99734.69
2023-04-24T06:23:33.858Z,99741.34
2023-04-24T06:26:37.382Z,99743.41
2023-04-24T06:29:40.693Z,99748.28
2023-04-24T06:32:43.792Z,99741.69
2023-04-24T06:35:48.547Z,99743.13
2023-04-24T06:38:51.669Z,99754.41
2023-04-24T06:41:54.729Z,99750.66
2023-04-24T06:44:57.714Z,99759.03
2023-04-24T06:48:00.829Z,99763.69
2023-04-24T06:51:05.273Z,99755.66
2023-04-24T06:54:08.250Z,99743.81
2023-04-24T06:57:11.498Z,99742.59
2023-04-24T07:00:15.983Z,99742.47
2023-04-24T07:03:19.061Z,99734.69
2023-04-24T07:06:25.270Z,99736.50
2023-04-24T07:09:29.530Z,99731.13
2023-04-24T07:12:33.421Z,99739.66
2023-04-24T07:15:36.589Z,99736.56
2023-04-24T07:18:40.879Z,99739.38
2023-04-24T07:21:45.685Z,99731.53
2023-04-24T07:24:48.686Z,99738.75
2023-04-24T07:27:51.679Z,99734.69
2023-04-24T07:30:55.561Z,99742.69
2023-04-24T07:33:59.236Z,99751.72
2023-04-24T07:37:04.157Z,99750.59
2023-04-24T07:40:09.122Z,99754.97
2023-04-24T07:43:12.122Z,99755.94
2023-04-24T07:46:15.222Z,99748.25
2023-04-24T07:49:19.904Z,99746.78
2023-04-24T07:52:25.241Z,99745.34
2023-04-24T07:55:28.492Z,99736.47
2023-04-24T07:58:31.796Z,99733.16
2023-04-24T08:01:34.860Z,99739.34
2023-04-24T08:04:38.146Z,99734.53
2023-04-24T08:07:47.382Z,99735.56
2023-04-24T08:10:50.661Z,99735.50
2023-04-24T08:13:53.867Z,99735.78
2023-04-24T08:16:57.832Z,99735.91
2023-04-24T08:20:03.588Z,99744.84
2023-04-24T08:23:09.209Z,99746.78
2023-04-24T08:26:14.875Z,99735.38
2023-04-24T08:29:18.068Z,99742.53
2023-04-24T08:32:21.096Z,99731.88
2023-04-24T08:35:24.203Z,99734.03
2023-04-24T08:38:28.480Z,99727.84
2023-04-24T08:41:33.080Z,99736.22
2023-04-24T08:44:37.830Z,99735.66
2023-04-24T08:47:42.186Z,99727.47
2023-04-24T08:50:46.511Z,99739.00
2023-04-24T08:53:51.433Z,99734.38
2023-04-24T08:57:01.962Z,99735.31
2023-04-24T09:00:06.952Z,99741.78
2023-04-24T09:03:10.486Z,99739.16
2023-04-24T09:06:13.795Z,99739.75
2023-04-24T09:09:19.587Z,99746.66
2023-04-24T09:12:24.973Z,99735.94
2023-04-24T09:15:28.206Z,99738.19
2023-04-24T09:18:31.247Z,99742.66
2023-04-24T09:21:35.361Z,99739.44
2023-04-24T09:24:44.354Z,99749.03
2023-04-24T09:27:47.801Z,99754.44
2023-04-24T09:31:05.311Z,99744.44
2023-04-24T09:34:08.595Z,99745.53
2023-04-24T09:37:11.858Z,99757.59
2023-04-24T09:40:19.681Z,99759.19
2023-04-24T09:43:23.888Z,99752.44
2023-04-24T09:46:34.697Z,99768.31
2023-04-24T09:49:40.233Z,99768.53
2023-04-24T09:52:48.921Z,99758.38
2023-04-24T09:55:54.122Z,99755.38
2023-04-24T09:58:57.236Z,99757.41
2023-04-24T10:02:01.768Z,99756.59
2023-04-24T10:05:05.692Z,99748.13
2023-04-24T10:08:11.114Z,99744.34
2023-04-24T10:11:15.934Z,99740.00
2023-04-24T10:14:23.237Z,99743.56
2023-04-24T10:17:27.912Z,99744.81
2023-04-24T10:20:32.500Z,99748.19
2023-04-24T10:23:36.547Z,99750.47
2023-04-24T10:26:44.380Z,99747.34
2023-04-24T10:29:49.191Z,99753.72
2023-04-24T10:32:52.752Z,99743.75
2023-04-24T10:35:57.367Z,99747.97
2023-04-24T10:39:04.517Z,99747.53
2023-04-24T10:42:18.124Z,99743.19
2023-04-24T10:45:23.035Z,99735.38
2023-04-24T10:48:29.303Z,99739.53
2023-04-24T10:51:48.905Z,99748.44
2023-04-24T10:54:53.510Z,99751.72
2023-04-24T10:58:07.272Z,99748.06
2023-04-24T11:01:10.668Z,99745.38
2023-04-24T11:04:13.826Z,99732.88
2023-04-24T11:07:18.170Z,99731.00
2023-04-24T11:10:28.015Z,99726.09
2023-04-24T11:14:07.369Z,99720.19
2023-04-24T11:17:11.256Z,99727.06
2023-04-24T11:23:28.463Z,99720.50
2023-04-24T11:26:33.458Z,99722.25
2023-04-24T11:29:51.248Z,99728.50
2023-04-24T11:32:54.686Z,99727.16
2023-04-24T11:35:57.825Z,99737.75
2023-04-24T11:39:00.922Z,99760.72
2023-04-24T11:42:07.200Z,99791.13
2023-04-24T11:45:15.551Z,99789.38
2023-04-24T11:48:23.742Z,99782.75
2023-04-24T11:51:31.155Z,99769.13
2023-04-24T11:54:39.484Z,99765.84
2023-04-24T11:57:45.994Z,99756.03
2023-04-24T12:00:59.433Z,99752.59
2023-04-24T12:04:02.944Z,99750.19
2023-04-24T12:07:06.977Z,99754.03
2023-04-24T12:10:11.109Z,99743.81
2023-04-24T12:13:15.367Z,99741.59
2023-04-24T12:16:19.895Z,99742.25
2023-04-24T12:19:24.391Z,99737.81
2023-04-24T12:22:28.087Z,99734.56
2023-04-24T12:25:33.291Z,99728.16
2023-04-24T12:28:38.133Z,99727.88
2023-04-24T12:31:42.963Z,99729.94
2023-04-24T12:34:46.906Z,99714.00
2023-04-24T12:37:50.559Z,99718.41
2023-04-24T12:41:05.838Z,99711.97
2023-04-24T12:44:14.063Z,99717.41
2023-04-24T12:47:18.467Z,99715.50
2023-04-24T12:50:21.685Z,99701.38
2023-04-24T12:53:27.615Z,99710.47
2023-04-24T12:56:33.781Z,99709.97
2023-04-24T12:59:36.917Z,99707.78
2023-04-24T13:02:43.881Z,99701.25
2023-04-24T13:05:47.203Z,99694.69
2023-04-24T13:08:50.361Z,99702.41
2023-04-24T13:11:53.496Z,99694.44
2023-04-24T13:14:56.796Z,99701.75
2023-04-24T13:18:01.489Z,99712.28
2023-04-24T13:21:05.074Z,99702.13
2023-04-24T13:24:08.825Z,99702.56
2023-04-24T13:27:11.803Z,99693.16
2023-04-24T13:30:15.804Z,99695.81
2023-04-24T13:33:20.560Z,99692.59
2023-04-24T13:36:23.592Z,99700.00
2023-04-24T13:39:27.582Z,99696.00
2023-04-24T13:42:30.957Z,99686.72
2023-04-24T13:45:45.423Z,99685.78
2023-04-24T13:49:10.148Z,99678.09
2023-04-24T13:52:13.283Z,99695.06
2023-04-24T13:55:16.882Z,99679.59
2023-04-24T13:58:19.993Z,99700.75
2023-04-24T14:01:25.194Z,99694.47
2023-04-24T14:04:29.902Z,99689.44
2023-04-24T14:07:33.162Z,99694.19
2023-04-24T14:10:36.253Z,99695.00
2023-04-24T14:13:39.525Z,99687.59
2023-04-24T14:16:42.555Z,99698.28
2023-04-24T14:19:47.046Z,99690.78
2023-04-24T14:22:50.057Z,99698.56
2023-04-24T14:25:53.495Z,99697.31
2023-04-24T14:29:03.967Z,99684.13
2023-04-24T14:32:10.604Z,99691.16
2023-04-24T14:35:15.606Z,99689.06
2023-04-24T14:38:18.664Z,99684.31
2023-04-24T14:41:21.675Z,99695.81
2023-04-24T14:44:25.291Z,99692.91
2023-04-24T14:47:28.534Z,99691.72
2023-04-24T14:50:33.054Z,99700.44
2023-04-24T14:53:38.740Z,99687.19
2023-04-24T14:56:43.691Z,99698.69
2023-04-24T14:59:46.689Z,99695.34
2023-04-24T15:02:49.870Z,99705.19
2023-04-24T15:05:54.715Z,99708.09
2023-04-24T15:08:57.704Z,99715.78
2023-04-24T15:12:00.949Z,99710.78
2023-04-24T15:15:08.894Z,99713.50
2023-04-24T15:18:12.727Z,99719.88
2023-04-24T15:21:17.522Z,99717.28
2023-04-24T15:24:21.210Z,99719.53
2023-04-24T15:27:25.538Z,99714.38
2023-04-24T15:30:28.839Z,99714.06
2023-04-24T15:33:31.881Z,99722.06
2023-04-24T15:36:36.335Z,99727.72
2023-04-24T15:39:40.254Z,99741.41
2023-04-24T15:42:44.712Z,99735.84
2023-04-24T15:45:47.903Z,99739.75
2023-04-24T15:48:52.011Z,99737.28
2023-04-24T15:51:56.556Z,99748.44
2023-04-24T15:54:59.991Z,99746.47
2023-04-24T15:58:04.565Z,99744.84
2023-04-24T16:01:07.893Z,99746.19
2023-04-24T16:04:11.379Z,99758.34
2023-04-24T16:07:18.701Z,99752.13
2023-04-24T16:10:21.835Z,99746.56
2023-04-24T16:13:25.009Z,99751.00
2023-04-24T16:16:29.076Z,99746.59
2023-04-24T16:19:33.912Z,99758.75
2023-04-24T16:22:41.727Z,99751.22
2023-04-24T16:25:44.847Z,99756.00
2023-04-24T16:28:48.131Z,99749.25
2023-04-24T16:31:51.580Z,99748.91
2023-04-24T16:34:54.873Z,99757.44
2023-04-24T16:37:59.339Z,99757.16
2023-04-24T16:41:02.787Z,99764.53
2023-04-24T16:44:05.912Z,99767.31
2023-04-24T16:47:09.663Z,99776.34
2023-04-24T16:50:13.390Z,99774.19
2023-04-24T16:53:17.792Z,99775.19
2023-04-24T16:56:20.916Z,99779.91
2023-04-24T16:59:24.644Z,99793.47
2023-04-24T17:02:29.151Z,99814.50
2023-04-24T17:05:35.538Z,99811.94
2023-04-24T17:08:39.944Z,99841.22
2023-04-24T17:11:43.218Z,99835.53
2023-04-24T17:14:46.380Z,99832.66
2023-04-24T17:17:51.102Z,99844.56
2023-04-24T17:20:54.233Z,99854.56
2023-04-24T17:23:58.595Z,99849.94
2023-04-24T17:27:13.823Z,99858.66
2023-04-24T17:30:18.042Z,99856.03
2023-04-24T17:33:21.205Z,99867.47
2023-04-24T17:36:24.801Z,99866.25
2023-04-24T17:39:29.382Z,99871.81
2023-04-24T17:42:32.435Z,99877.44
2023-04-24T17:45:36.945Z,99878.19
2023-04-24T17:48:40.115Z,99894.16
2023-04-24T17:51:43.285Z,99894.47
2023-04-24T17:54:49.651Z,99904.34
2023-04-24T17:57:52.816Z,99909.91
2023-04-24T18:00:57.237Z,99904.13
2023-04-24T18:04:01.810Z,99921.50
2023-04-24T18:07:05.116Z,99919.03
2023-04-24T18:10:10.553Z,99921.50
2023-04-24T18:13:13.802Z,99932.50
2023-04-24T18:16:16.857Z,99941.31
2023-04-24T18:19:19.895Z,99936.91
2023-04-24T18:22:23.280Z,99954.78
2023-04-24T18:25:28.246Z,99958.91
2023-04-24T18:28:34.558Z,99986.09
2023-04-24T18:31:37.786Z,99979.78
2023-04-24T18:34:41.084Z,99983.47
2023-04-24T18:37:45.424Z,99980.03
2023-04-24T18:40:49.975Z,99997.34
2023-04-24T18:43:53.476Z,99995.38
2023-04-24T18:46:56.993Z,100003.81
2023-04-24T18:50:00.610Z,100014.94
2023-04-24T18:53:03.777Z,100016.69
2023-04-24T18:56:08.312Z,100030.38
2023-04-24T18:59:11.468Z,100032.00
2023-04-24T19:02:15.389Z,100025.63
2023-04-24T19:05:18.663Z,100039.03
2023-04-24T19:08:21.667Z,100037.63
2023-04-24T19:11:26.059Z,100036.94
2023-04-24T19:14:29.827Z,100050.72
2023-04-24T19:17:35.587Z,100063.16
2023-04-24T19:20:40.126Z,100060.03
2023-04-24T19:27:58.096Z,100066.16
2023-04-24T19:31:10.914Z,100061.63
2023-04-24T19:34:26.291Z,100073.56
2023-04-24T19:37:32.162Z,100071.69
2023-04-24T19:40:35.340Z,100065.06
2023-04-24T19:43:39.750Z,100082.47
2023-04-24T19:46:43.068Z,100074.56
2023-04-24T19:50:24.801Z,100081.69
2023-04-24T19:54:27.713Z,100087.13
2023-04-24T19:58:36.271Z,100080.63
2023-04-24T20:01:47.165Z,100085.38
2023-04-24T20:05:02.450Z,100078.44
2023-04-24T20:08:06.144Z,100082.47
2023-04-24T20:11:09.768Z,100089.31
2023-04-24T20:14:14.294Z,100088.28
2023-04-24T20:17:19.241Z,100083.59
2023-04-24T20:20:48.818Z,100092.66
2023-04-24T20:24:04.627Z,100090.16
2023-04-24T20:27:09.568Z,100095.50
2023-04-24T20:30:13.856Z,100092.53
2023-04-24T20:33:18.834Z,100089.22
2023-04-24T20:36:21.918Z,100095.25
2023-04-24T20:39:31.358Z,100092.53
2023-04-24T20:42:36.754Z,100085.09
2023-04-24T20:45:40.346Z,100080.13
2023-04-24T20:48:44.743Z,100083.53
2023-04-24T20:51:47.862Z,100085.81
2023-04-24T20:54:52.944Z,100089.34
2023-04-24T20:58:00.540Z,100086.28
2023-04-24T21:01:06.095Z,100083.34
2023-04-24T21:09:27.551Z,100088.88
2023-04-24T21:20:00.275Z,100086.06
2023-04-24T21:23:24.163Z,100083.06
2023-04-24T21:26:40.587Z,100078.94
2023-04-24T21:29:49.827Z,100080.72
2023-04-24T21:32:54.312Z,100070.31
2023-04-24T21:35:58.442Z,100073.63
2023-04-24T21:39:18.255Z,100068.53
2023-04-24T21:42:22.892Z,100072.19
2023-04-24T21:45:27.453Z,100075.28
2023-04-24T21:48:33.516Z,100070.91
2023-04-24T21:51:59.963Z,100076.34
2023-04-24T21:55:11.127Z,100080.72
2023-04-24T21:58:22.501Z,100077.84
2023-04-24T22:01:31.217Z,100077.03
2023-04-24T22:04:34.833Z,100070.19
2023-04-24T22:07:39.002Z,100079.88
2023-04-24T22:10:42.390Z,100073.94
2023-04-24T22:13:49.536Z,100072.31
2023-04-24T22:16:52.804Z,100076.06
2023-04-24T22:19:59.825Z,100075.16
2023-04-24T22:23:06.174Z,100082.13
2023-04-24T22:26:09.430Z,100078.09
2023-04-24T22:29:26.038Z,100074.19
2023-04-24T22:32:33.135Z,100076.78
2023-04-24T22:35:51.122Z,100075.84
2023-04-24T22:39:02.439Z,100078.44
2023-04-24T22:42:06.532Z,100077.25
2023-04-24T22:45:23.908Z,100075.97
2023-04-24T22:48:28.154Z,100085.75
2023-04-24T22:51:33.486Z,100077.25
2023-04-24T22:54:36.511Z,100085.00
2023-04-24T22:57:52.795Z,100083.13
2023-04-24T23:01:24.346Z,100077.59
2023-04-24T23:04:30.464Z,100078.97
2023-04-24T23:08:04.270Z,100070.84
2023-04-24T23:11:11.555Z,100078.53
2023-04-24T23:14:16.834Z,100080.53
2023-04-24T23:17:21.781Z,100078.91
2023-04-24T23:20:28.045Z,100070.38
2023-04-24T23:23:31.552Z,100069.19
2023-04-24T23:26:39.155Z,100068.50
2023-04-24T23:29:47.295Z,100065.31
2023-04-24T23:32:51.786Z,100069.69
2023-04-24T23:35:57.016Z,100069.94
2023-04-24T23:39:00.744Z,100068.25
2023-04-24T23:42:04.367Z,100059.53
2023-04-24T23:45:10.779Z,100055.16
2023-04-24T23:48:15.384Z,100062.00
2023-04-24T23:51:19.258Z,100051.25
2023-04-24T23:54:26.682Z,100059.03
2023-04-24T23:57:30.333Z,100065.03
